createdAt,value
2022-10-07T00:00:32.484Z,0.00
2022-10-07T00:01:32.531Z,0.00
2022-10-07T00:02:32.563Z,0.00
2022-10-07T00:03:32.448Z,0.00
2022-10-07T00:04:32.422Z,0.00
2022-10-07T00:05:32.389Z,0.00
2022-10-07T00:06:32.390Z,0.00
2022-10-07T00:07:32.382Z,0.00
2022-10-07T00:08:32.381Z,0.00
2022-10-07T00:09:32.326Z,0.00
2022-10-07T00:10:32.355Z,0.00
2022-10-07T00:11:32.326Z,0.00
2022-10-07T00:12:32.299Z,0.00
2022-10-07T00:13:32.372Z,0.00
2022-10-07T00:14:32.286Z,0.00
2022-10-07T00:15:32.272Z,0.00
2022-10-07T00:16:32.367Z,0.00
2022-10-07T00:17:32.237Z,0.00
2022-10-07T00:18:32.239Z,0.00
2022-10-07T00:19:32.235Z,0.00
2022-10-07T00:20:32.225Z,0.00
2022-10-07T00:21:32.203Z,0.00
2022-10-07T00:22:32.203Z,0.00
2022-10-07T00:23:32.176Z,0.00
2022-10-07T00:24:32.172Z,0.00
2022-10-07T00:25:32.145Z,0.00
2022-10-07T00:26:32.123Z,0.00
2022-10-07T00:27:32.130Z,0.00
2022-10-07T00:28:32.160Z,0.00
2022-10-07T00:29:32.135Z,0.00
2022-10-07T00:30:32.173Z,0.00
2022-10-07T00:31:32.075Z,0.00
2022-10-07T00:32:32.057Z,0.00
2022-10-07T00:33:32.052Z,0.00
2022-10-07T00:34:32.054Z,0.00
2022-10-07T00:35:32.017Z,0.00
2022-10-07T00:36:32.019Z,0.00
2022-10-07T00:37:31.974Z,0.00
2022-10-07T00:38:31.962Z,0.00
2022-10-07T00:39:31.944Z,0.00
2022-10-07T00:40:31.942Z,0.00
2022-10-07T00:41:31.913Z,0.00
2022-10-07T00:42:31.909Z,0.00
2022-10-07T00:43:31.905Z,0.00
2022-10-07T00:44:31.912Z,0.00
2022-10-07T00:45:31.904Z,0.00
2022-10-07T00:46:31.864Z,0.00
2022-10-07T00:47:31.830Z,0.00
2022-10-07T00:48:31.819Z,0.00
2022-10-07T00:49:31.842Z,0.00
2022-10-07T00:50:31.804Z,0.00
2022-10-07T00:51:31.805Z,0.00
2022-10-07T00:52:31.789Z,0.00
2022-10-07T00:53:31.762Z,0.00
2022-10-07T00:54:31.796Z,0.00
2022-10-07T00:55:31.746Z,0.00
2022-10-07T00:56:31.731Z,0.00
2022-10-07T00:57:31.719Z,0.00
2022-10-07T00:58:31.689Z,0.00
2022-10-07T00:59:31.719Z,0.00
2022-10-07T01:00:31.665Z,0.00
2022-10-07T01:01:31.727Z,0.00
2022-10-07T01:02:31.722Z,0.00
2022-10-07T01:03:31.651Z,0.00
2022-10-07T01:04:31.635Z,0.00
2022-10-07T01:05:31.620Z,0.00
2022-10-07T01:06:31.623Z,0.00
2022-10-07T01:07:31.627Z,0.00
2022-10-07T01:08:31.573Z,0.00
2022-10-07T01:09:31.566Z,0.00
2022-10-07T01:10:31.550Z,0.00
2022-10-07T01:11:31.544Z,0.00
2022-10-07T01:12:31.528Z,0.00
2022-10-07T01:13:31.536Z,0.00
2022-10-07T01:14:31.490Z,0.00
2022-10-07T01:15:31.489Z,0.00
2022-10-07T01:16:31.526Z,0.00
2022-10-07T01:17:31.491Z,0.00
2022-10-07T01:18:31.463Z,0.00
2022-10-07T01:19:31.437Z,0.00
2022-10-07T01:20:31.440Z,0.00
2022-10-07T01:21:31.419Z,0.00
2022-10-07T01:22:31.402Z,0.00
2022-10-07T01:23:31.410Z,0.00
2022-10-07T01:24:31.383Z,0.00
2022-10-07T01:25:31.372Z,0.00
2022-10-07T01:26:31.376Z,0.00
2022-10-07T01:27:31.562Z,0.00
2022-10-07T01:28:31.387Z,0.00
2022-10-07T01:29:31.314Z,0.00
2022-10-07T01:30:31.344Z,0.00
2022-10-07T01:31:31.307Z,0.00
2022-10-07T01:32:31.290Z,0.00
2022-10-07T01:33:31.275Z,0.00
2022-10-07T01:34:31.261Z,0.00
2022-10-07T01:35:31.253Z,0.00
2022-10-07T01:36:31.223Z,0.00
2022-10-07T01:37:31.234Z,0.00
2022-10-07T01:38:31.229Z,0.00
2022-10-07T01:39:31.195Z,0.00
2022-10-07T01:40:31.176Z,0.00
2022-10-07T01:41:31.200Z,0.00
2022-10-07T01:42:31.171Z,0.00
2022-10-07T01:43:31.146Z,0.00
2022-10-07T01:44:31.154Z,0.00
2022-10-07T01:45:31.136Z,0.00
2022-10-07T01:46:31.211Z,0.00
2022-10-07T01:47:31.100Z,0.00
2022-10-07T01:48:31.097Z,0.00
2022-10-07T01:49:31.071Z,0.00
2022-10-07T01:50:31.067Z,0.00
2022-10-07T01:51:31.047Z,0.00
2022-10-07T01:52:31.036Z,0.00
2022-10-07T01:53:31.043Z,0.00
2022-10-07T01:54:31.028Z,0.00
2022-10-07T01:55:31.008Z,0.00
2022-10-07T01:56:30.999Z,0.00
2022-10-07T01:57:30.977Z,0.00
2022-10-07T01:58:30.975Z,0.00
2022-10-07T01:59:30.984Z,0.00
2022-10-07T02:00:30.946Z,0.00
2022-10-07T02:01:31.019Z,0.00
2022-10-07T02:02:30.904Z,0.00
2022-10-07T02:03:30.966Z,0.00
2022-10-07T02:04:30.917Z,0.00
2022-10-07T02:05:30.914Z,0.00
2022-10-07T02:06:30.876Z,0.00
2022-10-07T02:07:30.861Z,0.00
2022-10-07T02:08:30.860Z,0.00
2022-10-07T02:09:30.818Z,0.00
2022-10-07T02:10:30.830Z,0.00
2022-10-07T02:11:30.824Z,0.00
2022-10-07T02:12:30.782Z,0.00
2022-10-07T02:13:30.768Z,0.00
2022-10-07T02:14:30.763Z,0.00
2022-10-07T02:15:30.803Z,0.00
2022-10-07T02:16:30.765Z,0.00
2022-10-07T02:17:30.734Z,0.00
2022-10-07T02:18:30.734Z,0.00
2022-10-07T02:19:30.692Z,0.00
2022-10-07T02:20:30.691Z,0.00
2022-10-07T02:21:30.699Z,0.00
2022-10-07T02:22:30.667Z,0.00
2022-10-07T02:23:30.652Z,0.00
2022-10-07T02:24:30.642Z,0.00
2022-10-07T02:25:30.634Z,0.00
2022-10-07T02:26:30.630Z,0.00
2022-10-07T02:27:30.647Z,0.00
2022-10-07T02:28:30.674Z,0.00
2022-10-07T02:29:30.582Z,0.00
2022-10-07T02:30:30.576Z,0.00
2022-10-07T02:31:30.646Z,0.00
2022-10-07T02:32:30.574Z,0.00
2022-10-07T02:33:30.538Z,0.00
2022-10-07T02:34:30.526Z,0.00
2022-10-07T02:35:30.509Z,0.00
2022-10-07T02:36:30.513Z,0.00
2022-10-07T02:37:30.506Z,0.00
2022-10-07T02:38:30.498Z,0.00
2022-10-07T02:39:30.517Z,0.00
2022-10-07T02:40:30.460Z,0.00
2022-10-07T02:41:30.432Z,0.00
2022-10-07T02:42:30.440Z,0.00
2022-10-07T02:43:30.426Z,0.00
2022-10-07T02:44:30.419Z,0.00
2022-10-07T02:45:30.413Z,0.00
2022-10-07T02:46:30.457Z,0.00
2022-10-07T02:47:30.370Z,0.00
2022-10-07T02:48:30.365Z,0.00
2022-10-07T02:49:30.336Z,0.00
2022-10-07T02:50:30.322Z,0.00
2022-10-07T02:51:30.328Z,0.00
2022-10-07T02:52:30.320Z,0.00
2022-10-07T02:53:30.319Z,0.00
2022-10-07T02:54:30.288Z,0.00
2022-10-07T02:55:30.279Z,0.00
2022-10-07T02:56:30.287Z,0.00
2022-10-07T02:57:30.232Z,0.00
2022-10-07T02:58:30.233Z,0.00
2022-10-07T02:59:30.221Z,0.00
2022-10-07T03:00:30.218Z,0.00
2022-10-07T03:01:30.279Z,0.00
2022-10-07T03:02:30.182Z,0.00
2022-10-07T03:03:30.265Z,0.00
2022-10-07T03:04:30.153Z,0.00
2022-10-07T03:05:30.150Z,0.00
2022-10-07T03:06:30.164Z,0.00
2022-10-07T03:07:30.126Z,0.00
2022-10-07T03:08:30.125Z,0.00
2022-10-07T03:09:30.092Z,0.00
2022-10-07T03:10:30.087Z,0.00
2022-10-07T03:11:30.072Z,0.00
2022-10-07T03:12:30.050Z,0.00
2022-10-07T03:13:30.066Z,0.00
2022-10-07T03:14:30.028Z,0.00
2022-10-07T03:15:30.017Z,0.00
2022-10-07T03:16:30.076Z,0.00
2022-10-07T03:17:29.984Z,0.00
2022-10-07T03:18:29.981Z,0.00
2022-10-07T03:19:29.979Z,0.00
2022-10-07T03:20:29.951Z,0.00
2022-10-07T03:21:29.946Z,0.00
2022-10-07T03:22:29.930Z,0.00
2022-10-07T03:23:29.920Z,0.00
2022-10-07T03:24:29.926Z,0.00
2022-10-07T03:25:29.879Z,0.00
2022-10-07T03:26:29.887Z,0.00
2022-10-07T03:27:29.884Z,0.00
2022-10-07T03:28:29.959Z,0.00
2022-10-07T03:29:29.858Z,0.00
2022-10-07T03:30:29.835Z,0.00
2022-10-07T03:31:29.904Z,0.00
2022-10-07T03:32:29.830Z,0.00
2022-10-07T03:33:29.796Z,0.00
2022-10-07T03:34:29.790Z,0.00
2022-10-07T03:35:29.761Z,0.00
2022-10-07T03:36:29.762Z,0.00
2022-10-07T03:37:29.753Z,0.00
2022-10-07T03:38:29.740Z,0.00
2022-10-07T03:39:29.711Z,0.00
2022-10-07T03:40:29.702Z,0.00
2022-10-07T03:41:29.683Z,0.00
2022-10-07T03:42:29.686Z,0.00
2022-10-07T03:43:29.686Z,0.00
2022-10-07T03:44:29.660Z,0.00
2022-10-07T03:45:29.645Z,0.00
2022-10-07T03:46:29.725Z,0.00
2022-10-07T03:47:29.632Z,0.00
2022-10-07T03:48:29.615Z,0.00
2022-10-07T03:49:29.609Z,0.00
2022-10-07T03:50:29.584Z,0.00
2022-10-07T03:51:29.575Z,0.00
2022-10-07T03:52:29.553Z,0.00
2022-10-07T03:53:29.535Z,0.00
2022-10-07T03:54:29.568Z,0.00
2022-10-07T03:55:29.532Z,0.00
2022-10-07T03:56:29.493Z,0.00
2022-10-07T03:57:29.493Z,0.00
2022-10-07T03:58:29.493Z,0.00
2022-10-07T03:59:29.457Z,0.00
2022-10-07T04:00:29.455Z,0.00
2022-10-07T04:01:29.503Z,0.00
2022-10-07T04:02:29.491Z,0.00
2022-10-07T04:03:29.426Z,0.00
2022-10-07T04:04:29.406Z,0.00
2022-10-07T04:05:29.387Z,0.00
2022-10-07T04:06:29.400Z,0.00
2022-10-07T04:07:29.366Z,0.00
2022-10-07T04:08:29.356Z,0.00
2022-10-07T04:09:29.367Z,0.00
2022-10-07T04:10:29.360Z,0.00
2022-10-07T04:11:29.307Z,0.00
2022-10-07T04:12:29.306Z,0.00
2022-10-07T04:13:29.283Z,0.00
2022-10-07T04:14:29.288Z,0.00
2022-10-07T04:15:29.267Z,0.00
2022-10-07T04:16:29.335Z,0.00
2022-10-07T04:17:29.231Z,0.00
2022-10-07T04:18:29.224Z,0.00
2022-10-07T04:19:29.210Z,0.00
2022-10-07T04:20:29.203Z,0.00
2022-10-07T04:21:29.215Z,0.00
2022-10-07T04:22:29.175Z,0.00
2022-10-07T04:23:29.163Z,0.00
2022-10-07T04:24:29.167Z,0.00
2022-10-07T04:25:29.142Z,0.00
2022-10-07T04:26:29.133Z,0.00
2022-10-07T04:27:50.531Z,0.00
2022-10-07T04:28:30.116Z,0.00
2022-10-07T04:29:29.085Z,0.00
2022-10-07T04:30:29.080Z,0.00
2022-10-07T04:31:29.130Z,0.00
2022-10-07T04:32:29.071Z,0.00
2022-10-07T04:33:29.051Z,0.00
2022-10-07T04:34:29.030Z,0.00
2022-10-07T04:35:29.014Z,0.00
2022-10-07T04:36:29.009Z,0.00
2022-10-07T04:37:29.017Z,0.00
2022-10-07T04:38:28.991Z,0.00
2022-10-07T04:39:49.008Z,0.00
2022-10-07T04:40:29.967Z,0.00
2022-10-07T04:41:28.943Z,0.00
2022-10-07T04:42:28.960Z,0.00
2022-10-07T04:43:28.940Z,0.00
2022-10-07T04:44:28.904Z,0.00
2022-10-07T04:45:28.893Z,0.00
2022-10-07T04:46:28.943Z,0.00
2022-10-07T04:47:28.874Z,0.00
2022-10-07T04:48:28.852Z,0.00
2022-10-07T04:49:28.863Z,0.00
2022-10-07T04:50:28.827Z,0.00
2022-10-07T04:51:28.809Z,0.00
2022-10-07T04:52:28.818Z,0.00
2022-10-07T04:53:28.796Z,0.00
2022-10-07T04:54:28.782Z,0.00
2022-10-07T04:55:28.778Z,0.00
2022-10-07T04:56:28.755Z,0.00
2022-10-07T04:57:29.016Z,0.00
2022-10-07T04:58:28.736Z,0.00
2022-10-07T05:01:37.888Z,0.00
2022-10-07T05:02:37.774Z,0.00
2022-10-07T05:03:37.754Z,0.00
2022-10-07T05:04:37.739Z,0.00
2022-10-07T05:05:37.791Z,0.00
2022-10-07T05:06:37.717Z,0.00
2022-10-07T05:07:37.758Z,0.00
2022-10-07T05:08:37.682Z,0.00
2022-10-07T05:09:37.666Z,0.00
2022-10-07T05:10:37.655Z,0.00
2022-10-07T05:11:37.663Z,0.00
2022-10-07T05:12:37.656Z,0.00
2022-10-07T05:13:37.634Z,0.00
2022-10-07T05:14:37.657Z,0.00
2022-10-07T05:15:37.657Z,0.00
2022-10-07T05:16:37.694Z,0.00
2022-10-07T05:17:37.589Z,0.00
2022-10-07T05:18:37.582Z,0.00
2022-10-07T05:19:37.557Z,0.00
2022-10-07T05:20:37.559Z,0.00
2022-10-07T05:21:37.525Z,0.00
2022-10-07T05:22:37.514Z,0.00
2022-10-07T05:23:37.474Z,0.00
2022-10-07T05:24:37.495Z,0.00
2022-10-07T05:25:37.457Z,0.00
2022-10-07T05:26:37.442Z,0.00
2022-10-07T05:27:37.448Z,0.00
2022-10-07T05:28:37.543Z,0.00
2022-10-07T05:29:37.437Z,0.00
2022-10-07T05:30:37.430Z,0.00
2022-10-07T05:31:37.509Z,0.00
2022-10-07T05:32:37.380Z,0.00
2022-10-07T05:33:37.361Z,0.00
2022-10-07T05:34:37.351Z,0.00
2022-10-07T05:35:37.361Z,0.00
2022-10-07T05:36:37.324Z,0.00
2022-10-07T05:37:37.343Z,0.00
2022-10-07T05:38:37.319Z,0.00
2022-10-07T05:39:37.300Z,0.00
2022-10-07T05:40:37.279Z,0.00
2022-10-07T05:41:45.300Z,0.00
2022-10-07T05:42:38.285Z,5.62
2022-10-07T05:43:37.232Z,5.62
2022-10-07T05:44:37.227Z,5.62
2022-10-07T05:45:37.273Z,5.62
2022-10-07T05:46:37.222Z,5.62
2022-10-07T05:47:37.291Z,5.62
2022-10-07T05:48:39.584Z,5.62
2022-10-07T05:49:37.184Z,5.62
2022-10-07T05:50:37.167Z,5.62
2022-10-07T05:53:04.174Z,5.62
2022-10-07T05:53:35.883Z,11.25
2022-10-07T05:54:08.854Z,11.25
2022-10-07T05:55:08.842Z,11.25
2022-10-07T05:56:08.837Z,11.25
2022-10-07T05:57:08.873Z,11.25
2022-10-07T05:58:08.798Z,11.25
2022-10-07T05:59:08.858Z,11.25
2022-10-07T06:00:08.780Z,16.88
2022-10-07T06:01:13.733Z,16.88
2022-10-07T06:02:09.942Z,16.88
2022-10-07T06:03:08.905Z,16.88
2022-10-07T06:04:08.731Z,16.88
2022-10-07T06:05:08.745Z,16.88
2022-10-07T06:06:08.744Z,16.88
2022-10-07T06:07:08.718Z,22.50
2022-10-07T06:08:08.723Z,22.50
2022-10-07T06:09:08.691Z,22.50
2022-10-07T06:10:08.660Z,22.50
2022-10-07T06:11:08.667Z,22.50
2022-10-07T06:12:08.646Z,22.50
2022-10-07T06:13:08.641Z,28.12
2022-10-07T06:14:08.623Z,28.12
2022-10-07T06:15:08.607Z,28.12
2022-10-07T06:16:08.670Z,28.12
2022-10-07T06:17:08.585Z,28.12
2022-10-07T06:18:08.592Z,28.12
2022-10-07T06:19:08.586Z,33.75
2022-10-07T06:20:08.535Z,33.75
2022-10-07T06:21:08.548Z,39.38
2022-10-07T06:22:08.535Z,33.75
2022-10-07T06:23:08.509Z,39.38
2022-10-07T06:24:08.490Z,39.38
2022-10-07T06:25:08.491Z,39.38
2022-10-07T06:26:08.458Z,39.38
2022-10-07T06:27:08.490Z,39.38
2022-10-07T06:28:08.514Z,45.00
2022-10-07T06:29:08.448Z,45.00
2022-10-07T06:30:08.475Z,50.62
2022-10-07T06:31:08.466Z,50.62
2022-10-07T06:32:08.400Z,50.62
2022-10-07T06:33:08.417Z,50.62
2022-10-07T06:34:08.419Z,45.00
2022-10-07T06:35:08.388Z,50.62
2022-10-07T06:36:08.350Z,61.88
2022-10-07T06:37:08.356Z,73.12
2022-10-07T06:38:08.363Z,73.12
2022-10-07T06:39:08.388Z,73.12
2022-10-07T06:40:08.323Z,61.88
2022-10-07T06:41:08.331Z,73.12
2022-10-07T06:42:08.280Z,90.00
2022-10-07T06:43:08.270Z,95.62
2022-10-07T06:44:08.246Z,78.75
2022-10-07T06:45:08.245Z,78.75
2022-10-07T06:46:08.340Z,61.88
2022-10-07T06:47:11.606Z,67.50
2022-10-07T06:48:08.227Z,67.50
2022-10-07T06:49:08.207Z,67.50
2022-10-07T06:50:08.176Z,67.50
2022-10-07T06:51:08.204Z,67.50
2022-10-07T06:52:08.165Z,67.50
2022-10-07T06:53:08.162Z,67.50
2022-10-07T06:54:08.163Z,67.50
2022-10-07T06:55:08.115Z,67.50
2022-10-07T06:56:08.126Z,73.12
2022-10-07T06:57:26.371Z,73.12
2022-10-07T06:58:11.613Z,73.12
2022-10-07T06:59:08.078Z,73.12
2022-10-07T07:00:08.064Z,73.12
2022-10-07T07:01:08.100Z,73.12
2022-10-07T07:02:08.045Z,73.12
2022-10-07T07:03:08.012Z,67.50
2022-10-07T07:04:08.019Z,73.12
2022-10-07T07:05:07.991Z,73.12
2022-10-07T07:06:08.031Z,78.75
2022-10-07T07:07:07.965Z,78.75
2022-10-07T07:08:07.954Z,73.12
2022-10-07T07:09:07.963Z,73.12
2022-10-07T07:10:07.938Z,78.75
2022-10-07T07:11:07.926Z,78.75
2022-10-07T07:12:07.932Z,78.75
2022-10-07T07:13:07.897Z,78.75
2022-10-07T07:14:07.881Z,84.38
2022-10-07T07:15:07.878Z,84.38
2022-10-07T07:16:07.844Z,84.38
2022-10-07T07:17:07.985Z,78.75
2022-10-07T07:18:07.813Z,90.00
2022-10-07T07:19:07.830Z,135.00
2022-10-07T07:20:07.792Z,135.00
2022-10-07T07:21:07.815Z,112.50
2022-10-07T07:22:07.758Z,101.25
2022-10-07T07:23:07.764Z,78.75
2022-10-07T07:24:07.771Z,78.75
2022-10-07T07:25:07.722Z,78.75
2022-10-07T07:26:07.715Z,84.38
2022-10-07T07:27:07.708Z,95.62
2022-10-07T07:28:07.744Z,78.75
2022-10-07T07:29:07.686Z,84.38
2022-10-07T07:30:07.729Z,78.75
2022-10-07T07:31:07.713Z,84.38
2022-10-07T07:32:07.638Z,84.38
2022-10-07T07:33:07.630Z,84.38
2022-10-07T07:34:07.650Z,78.75
2022-10-07T07:35:07.598Z,78.75
2022-10-07T07:36:07.596Z,95.62
2022-10-07T07:37:07.577Z,106.88
2022-10-07T07:38:07.565Z,112.50
2022-10-07T07:39:07.544Z,118.12
2022-10-07T07:40:07.548Z,90.00
2022-10-07T07:41:07.535Z,84.38
2022-10-07T07:42:07.493Z,90.00
2022-10-07T07:43:07.505Z,101.25
2022-10-07T07:44:07.474Z,106.88
2022-10-07T07:45:07.496Z,106.88
2022-10-07T07:46:07.535Z,112.50
2022-10-07T07:47:07.441Z,123.75
2022-10-07T07:48:07.432Z,112.50
2022-10-07T07:49:07.432Z,118.12
2022-10-07T07:50:07.405Z,118.12
2022-10-07T07:51:07.382Z,112.50
2022-10-07T07:52:07.373Z,112.50
2022-10-07T07:53:07.361Z,101.25
2022-10-07T07:54:07.334Z,95.62
2022-10-07T07:55:07.349Z,95.62
2022-10-07T07:56:07.309Z,84.38
2022-10-07T07:57:07.315Z,95.62
2022-10-07T07:58:11.072Z,95.62
2022-10-07T07:59:07.271Z,95.62
2022-10-07T08:00:07.260Z,95.62
2022-10-07T08:01:07.341Z,95.62
2022-10-07T08:02:07.303Z,95.62
2022-10-07T08:03:07.218Z,101.25
2022-10-07T08:04:07.202Z,101.25
2022-10-07T08:05:07.204Z,101.25
2022-10-07T08:06:07.183Z,101.25
2022-10-07T08:07:07.207Z,101.25
2022-10-07T08:08:07.194Z,101.25
2022-10-07T08:09:07.147Z,101.25
2022-10-07T08:10:07.131Z,101.25
2022-10-07T08:11:07.106Z,95.62
2022-10-07T08:12:07.095Z,106.88
2022-10-07T08:13:07.096Z,101.25
2022-10-07T08:14:07.097Z,106.88
2022-10-07T08:15:07.047Z,106.88
2022-10-07T08:16:07.104Z,106.88
2022-10-07T08:17:07.025Z,112.50
2022-10-07T08:18:07.078Z,106.88
2022-10-07T08:19:07.026Z,106.88
2022-10-07T08:20:06.967Z,106.88
2022-10-07T08:21:06.958Z,101.25
2022-10-07T08:22:06.949Z,90.00
2022-10-07T08:23:06.958Z,90.00
2022-10-07T08:24:06.938Z,84.38
2022-10-07T08:25:06.939Z,90.00
2022-10-07T08:26:06.918Z,95.62
2022-10-07T08:27:06.884Z,95.62
2022-10-07T08:28:06.910Z,95.62
2022-10-07T08:29:06.855Z,95.62
2022-10-07T08:30:06.829Z,95.62
2022-10-07T08:31:06.858Z,95.62
2022-10-07T08:32:06.831Z,95.62
2022-10-07T08:33:06.789Z,95.62
2022-10-07T08:34:06.801Z,95.62
2022-10-07T08:35:06.769Z,95.62
2022-10-07T08:36:06.776Z,90.00
2022-10-07T08:37:06.734Z,90.00
2022-10-07T08:38:06.723Z,95.62
2022-10-07T08:39:06.750Z,95.62
2022-10-07T08:40:06.688Z,90.00
2022-10-07T08:41:06.682Z,90.00
2022-10-07T08:42:06.663Z,90.00
2022-10-07T08:43:06.667Z,95.62
2022-10-07T08:44:08.152Z,95.62
2022-10-07T08:45:06.643Z,95.62
2022-10-07T08:46:06.623Z,90.00
2022-10-07T08:47:06.635Z,90.00
2022-10-07T08:48:06.575Z,95.62
2022-10-07T08:49:06.554Z,95.62
2022-10-07T08:50:06.599Z,90.00
2022-10-07T08:51:06.530Z,95.62
2022-10-07T08:52:06.507Z,95.62
2022-10-07T08:53:06.496Z,95.62
2022-10-07T08:54:06.511Z,95.62
2022-10-07T08:55:06.465Z,95.62
2022-10-07T08:56:06.476Z,95.62
2022-10-07T08:57:06.448Z,95.62
2022-10-07T08:58:06.455Z,95.62
2022-10-07T08:59:06.415Z,90.00
2022-10-07T09:00:06.397Z,90.00
2022-10-07T09:01:06.436Z,90.00
2022-10-07T09:02:06.378Z,95.62
2022-10-07T09:03:06.368Z,95.62
2022-10-07T09:04:06.342Z,95.62
2022-10-07T09:05:06.370Z,95.62
2022-10-07T09:06:06.335Z,95.62
2022-10-07T09:07:06.308Z,95.62
2022-10-07T09:08:06.282Z,95.62
2022-10-07T09:09:06.286Z,95.62
2022-10-07T09:10:06.250Z,95.62
2022-10-07T09:11:08.023Z,95.62
2022-10-07T09:12:06.222Z,95.62
2022-10-07T09:13:06.200Z,95.62
2022-10-07T09:14:06.194Z,95.62
2022-10-07T09:15:06.188Z,95.62
2022-10-07T09:16:06.186Z,95.62
2022-10-07T09:17:06.191Z,95.62
2022-10-07T09:18:06.161Z,95.62
2022-10-07T09:19:06.117Z,95.62
2022-10-07T09:20:06.106Z,95.62
2022-10-07T09:21:06.093Z,95.62
2022-10-07T09:22:06.075Z,95.62
2022-10-07T09:23:06.099Z,95.62
2022-10-07T09:24:06.053Z,95.62
2022-10-07T09:25:09.039Z,101.25
2022-10-07T09:26:07.076Z,101.25
2022-10-07T09:27:06.033Z,101.25
2022-10-07T09:28:06.054Z,101.25
2022-10-07T09:29:05.995Z,101.25
2022-10-07T09:30:05.978Z,101.25
2022-10-07T09:31:05.985Z,95.62
2022-10-07T09:32:05.954Z,101.25
2022-10-07T09:33:05.921Z,101.25
2022-10-07T09:34:05.903Z,101.25
2022-10-07T09:35:06.019Z,101.25
2022-10-07T09:36:05.879Z,106.88
2022-10-07T09:37:05.887Z,106.88
2022-10-07T09:38:05.853Z,106.88
2022-10-07T09:39:05.858Z,106.88
2022-10-07T09:40:05.827Z,106.88
2022-10-07T09:41:05.825Z,106.88
2022-10-07T09:42:05.823Z,106.88
2022-10-07T09:43:05.820Z,112.50
2022-10-07T09:44:05.781Z,112.50
2022-10-07T09:45:05.794Z,112.50
2022-10-07T09:46:10.751Z,112.50
2022-10-07T09:47:05.719Z,112.50
2022-10-07T09:48:05.751Z,112.50
2022-10-07T09:49:05.699Z,112.50
2022-10-07T09:50:05.694Z,112.50
2022-10-07T09:51:05.711Z,112.50
2022-10-07T09:52:05.667Z,112.50
2022-10-07T09:53:05.651Z,123.75
2022-10-07T09:54:05.665Z,123.75
2022-10-07T09:55:05.610Z,129.38
2022-10-07T09:56:05.702Z,129.38
2022-10-07T09:57:05.601Z,135.00
2022-10-07T09:58:05.586Z,135.00
2022-10-07T09:59:05.573Z,135.00
2022-10-07T10:00:05.564Z,123.75
2022-10-07T10:01:05.544Z,135.00
2022-10-07T10:02:05.563Z,135.00
2022-10-07T10:03:06.227Z,135.00
2022-10-07T10:04:05.519Z,135.00
2022-10-07T10:05:05.512Z,135.00
2022-10-07T10:06:05.481Z,135.00
2022-10-07T10:07:05.468Z,135.00
2022-10-07T10:08:05.499Z,135.00
2022-10-07T10:09:05.429Z,140.62
2022-10-07T10:10:05.440Z,135.00
2022-10-07T10:11:05.406Z,135.00
2022-10-07T10:12:05.380Z,135.00
2022-10-07T10:13:05.368Z,140.62
2022-10-07T10:14:05.409Z,140.62
2022-10-07T10:15:05.428Z,140.62
2022-10-07T10:16:05.386Z,140.62
2022-10-07T10:17:05.343Z,140.62
2022-10-07T10:18:05.302Z,146.25
2022-10-07T10:19:05.298Z,146.25
2022-10-07T10:20:05.300Z,140.62
2022-10-07T10:21:05.280Z,140.62
2022-10-07T10:22:05.452Z,140.62
2022-10-07T10:23:05.250Z,140.62
2022-10-07T10:24:05.261Z,135.00
2022-10-07T10:25:05.223Z,135.00
2022-10-07T10:26:05.198Z,135.00
2022-10-07T10:27:05.190Z,140.62
2022-10-07T10:28:05.242Z,140.62
2022-10-07T10:29:05.174Z,135.00
2022-10-07T10:30:05.168Z,140.62
2022-10-07T10:31:05.182Z,135.00
2022-10-07T10:32:05.121Z,140.62
2022-10-07T10:33:05.104Z,140.62
2022-10-07T10:34:05.115Z,140.62
2022-10-07T10:35:05.111Z,140.62
2022-10-07T10:36:05.074Z,140.62
2022-10-07T10:37:05.120Z,140.62
2022-10-07T10:38:05.059Z,146.25
2022-10-07T10:39:05.026Z,146.25
2022-10-07T10:40:05.047Z,140.62
2022-10-07T10:41:05.020Z,140.62
2022-10-07T10:42:04.982Z,146.25
2022-10-07T10:43:05.095Z,140.62
2022-10-07T10:44:05.187Z,140.62
2022-10-07T10:45:04.941Z,140.62
2022-10-07T10:46:04.966Z,140.62
2022-10-07T10:47:05.055Z,135.00
2022-10-07T10:48:04.922Z,135.00
2022-10-07T10:49:04.911Z,140.62
2022-10-07T10:50:04.881Z,140.62
2022-10-07T10:51:04.874Z,140.62
2022-10-07T10:52:05.581Z,140.62
2022-10-07T10:53:04.862Z,140.62
2022-10-07T10:54:04.840Z,140.62
2022-10-07T10:55:04.819Z,140.62
2022-10-07T10:56:04.807Z,135.00
2022-10-07T10:57:04.842Z,135.00
2022-10-07T10:58:04.770Z,140.62
2022-10-07T10:59:04.781Z,140.62
2022-10-07T11:00:04.750Z,140.62
2022-10-07T11:01:12.328Z,129.38
2022-10-07T11:02:04.780Z,129.38
2022-10-07T11:03:04.753Z,135.00
2022-10-07T11:04:04.715Z,135.00
2022-10-07T11:05:04.720Z,129.38
2022-10-07T11:06:04.692Z,135.00
2022-10-07T11:07:04.641Z,140.62
2022-10-07T11:08:04.650Z,135.00
2022-10-07T11:09:04.639Z,135.00
2022-10-07T11:10:04.651Z,129.38
2022-10-07T11:11:04.613Z,135.00
2022-10-07T11:12:04.599Z,135.00
2022-10-07T11:13:04.592Z,129.38
2022-10-07T11:14:04.574Z,135.00
2022-10-07T11:15:04.535Z,129.38
2022-10-07T11:16:04.637Z,140.62
2022-10-07T11:17:04.539Z,140.62
2022-10-07T11:18:04.514Z,140.62
2022-10-07T11:19:04.496Z,140.62
2022-10-07T11:20:04.505Z,112.50
2022-10-07T11:21:04.520Z,118.12
2022-10-07T11:22:04.536Z,118.12
2022-10-07T11:23:04.436Z,106.88
2022-10-07T11:24:04.426Z,129.38
2022-10-07T11:25:04.406Z,146.25
2022-10-07T11:26:04.398Z,157.50
2022-10-07T11:27:04.435Z,140.62
2022-10-07T11:28:04.417Z,146.25
2022-10-07T11:29:04.408Z,118.12
2022-10-07T11:30:04.358Z,106.88
2022-10-07T11:31:04.400Z,123.75
2022-10-07T11:32:04.328Z,146.25
2022-10-07T11:33:04.330Z,106.88
2022-10-07T11:34:04.293Z,123.75
2022-10-07T11:35:04.292Z,140.62
2022-10-07T11:36:04.261Z,146.25
2022-10-07T11:37:04.260Z,146.25
2022-10-07T11:38:04.251Z,146.25
2022-10-07T11:39:04.221Z,140.62
2022-10-07T11:40:04.240Z,140.62
2022-10-07T11:41:04.204Z,135.00
2022-10-07T11:42:04.198Z,140.62
2022-10-07T11:43:04.172Z,146.25
2022-10-07T11:44:04.181Z,163.12
2022-10-07T11:45:04.153Z,174.38
2022-10-07T11:46:07.910Z,168.75
2022-10-07T11:47:05.184Z,163.12
2022-10-07T11:48:04.151Z,157.50
2022-10-07T11:49:04.137Z,151.88
2022-10-07T11:50:04.100Z,151.88
2022-10-07T11:51:04.070Z,157.50
2022-10-07T11:52:04.065Z,146.25
2022-10-07T11:53:04.051Z,140.62
2022-10-07T11:54:04.054Z,146.25
2022-10-07T11:55:04.067Z,146.25
2022-10-07T11:56:04.004Z,140.62
2022-10-07T11:57:03.996Z,140.62
2022-10-07T11:58:04.011Z,146.25
2022-10-07T11:59:03.968Z,151.88
2022-10-07T12:00:03.973Z,151.88
2022-10-07T12:01:03.930Z,151.88
2022-10-07T12:02:03.957Z,151.88
2022-10-07T12:03:03.958Z,146.25
2022-10-07T12:04:03.878Z,146.25
2022-10-07T12:05:03.895Z,151.88
2022-10-07T12:06:03.903Z,151.88
2022-10-07T12:07:03.863Z,146.25
2022-10-07T12:08:03.882Z,151.88
2022-10-07T12:09:03.835Z,151.88
2022-10-07T12:10:03.818Z,151.88
2022-10-07T12:11:03.792Z,157.50
2022-10-07T12:12:03.802Z,151.88
2022-10-07T12:13:03.774Z,151.88
2022-10-07T12:14:03.784Z,151.88
2022-10-07T12:15:03.737Z,146.25
2022-10-07T12:16:03.807Z,146.25
2022-10-07T12:17:03.738Z,140.62
2022-10-07T12:18:03.716Z,140.62
2022-10-07T12:19:03.701Z,140.62
2022-10-07T12:20:03.803Z,146.25
2022-10-07T12:21:03.667Z,146.25
2022-10-07T12:22:03.668Z,140.62
2022-10-07T12:23:03.663Z,140.62
2022-10-07T12:24:03.638Z,146.25
2022-10-07T12:25:05.836Z,146.25
2022-10-07T12:26:04.617Z,140.62
2022-10-07T12:27:03.605Z,123.75
2022-10-07T12:28:03.676Z,101.25
2022-10-07T12:29:03.556Z,106.88
2022-10-07T12:30:03.644Z,151.88
2022-10-07T12:31:03.540Z,151.88
2022-10-07T12:32:03.622Z,157.50
2022-10-07T12:33:03.494Z,157.50
2022-10-07T12:34:03.491Z,163.12
2022-10-07T12:35:03.473Z,157.50
2022-10-07T12:36:03.478Z,151.88
2022-10-07T12:37:03.495Z,157.50
2022-10-07T12:38:03.458Z,146.25
2022-10-07T12:39:03.424Z,146.25
2022-10-07T12:40:03.473Z,168.75
2022-10-07T12:41:03.415Z,174.38
2022-10-07T12:42:03.385Z,168.75
2022-10-07T12:43:03.401Z,168.75
2022-10-07T12:44:03.347Z,168.75
2022-10-07T12:45:03.338Z,168.75
2022-10-07T12:46:03.381Z,168.75
2022-10-07T12:47:03.335Z,168.75
2022-10-07T12:48:03.326Z,168.75
2022-10-07T12:49:03.330Z,163.12
2022-10-07T12:50:03.361Z,168.75
2022-10-07T12:51:03.271Z,168.75
2022-10-07T12:52:03.259Z,168.75
2022-10-07T12:53:03.253Z,163.12
2022-10-07T12:54:03.206Z,151.88
2022-10-07T12:55:03.218Z,157.50
2022-10-07T12:56:03.199Z,168.75
2022-10-07T12:57:03.202Z,168.75
2022-10-07T12:58:03.170Z,163.12